Time;durP1;ratioP1;P1;durP2;ratioP2;P2;SDS_P1;SDS_P2;PMS_P1;PMS_P2;Temp;Humidity;BMP_temperature;BMP_pressure;BME280_temperature;BME280_humidity;BME280_pressure;Samples;Min_cycle;Max_cycle;Signal;HPM_P1;HPM_P2
2023/12/02 00:00:42;;;;;;;39.20;16.92;;;;;;;;;;5008325;28;20041;-71
2023/12/02 00:03:08;;;;;;;39.78;19.45;;;;;;;;;;5001253;28;20034;-73
2023/12/02 00:05:33;;;;;;;36.92;15.98;;;;;;;;;;5010310;28;20101;-71
2023/12/02 00:07:59;;;;;;;28.58;16.27;;;;;;;;;;5023713;28;20446;-72
2023/12/02 00:10:25;;;;;;;26.75;15.80;;;;;;;;;;5033710;28;20033;-71
2023/12/02 00:12:51;;;;;;;34.83;15.82;;;;;;;;;;5033115;28;20040;-72
2023/12/02 00:15:16;;;;;;;35.45;16.45;;;;;;;;;;5033054;28;20407;-74
2023/12/02 00:17:42;;;;;;;32.58;15.85;;;;;;;;;;5032822;28;20038;-73
2023/12/02 00:20:08;;;;;;;28.45;15.02;;;;;;;;;;4999138;28;20446;-72
2023/12/02 00:22:34;;;;;;;28.85;15.45;;;;;;;;;;5015280;28;20124;-74
2023/12/02 00:24:59;;;;;;;29.23;13.88;;;;;;;;;;5027888;28;20108;-73
2023/12/02 00:27:25;;;;;;;26.48;13.40;;;;;;;;;;5012832;28;20076;-73
2023/12/02 00:29:51;;;;;;;26.45;13.98;;;;;;;;;;5027626;28;20331;-72
2023/12/02 00:32:17;;;;;;;30.00;14.65;;;;;;;;;;5027833;28;20036;-73
2023/12/02 00:34:42;;;;;;;25.98;15.65;;;;;;;;;;5019132;28;20431;-73
2023/12/02 00:37:08;;;;;;;29.02;14.18;;;;;;;;;;5011047;28;20041;-73
2023/12/02 00:39:34;;;;;;;26.50;12.52;;;;;;;;;;5013535;28;20025;-73
2023/12/02 00:42:00;;;;;;;22.63;10.02;;;;;;;;;;5029347;28;20041;-73
2023/12/02 00:44:26;;;;;;;23.75;10.50;;;;;;;;;;5026854;28;20044;-73
2023/12/02 00:46:51;;;;;;;17.92;9.00;;;;;;;;;;5010495;28;20037;-73
2023/12/02 00:49:17;;;;;;;13.55;7.65;;;;;;;;;;5007002;28;20498;-73
2023/12/02 00:51:43;;;;;;;17.42;8.10;;;;;;;;;;5007253;28;20038;-73
2023/12/02 00:54:08;;;;;;;16.73;8.65;;;;;;;;;;5024435;28;20082;-73
2023/12/02 00:56:34;;;;;;;30.98;15.73;;;;;;;;;;5026660;28;20049;-73
2023/12/02 00:59:00;;;;;;;40.45;17.38;;;;;;;;;;5026866;28;20025;-72
2023/12/02 01:01:25;;;;;;;24.55;14.40;;;;;;;;;;5026434;28;20422;-73
2023/12/02 01:03:51;;;;;;;23.73;13.15;;;;;;;;;;5022250;28;20321;-73
2023/12/02 01:06:17;;;;;;;28.83;13.90;;;;;;;;;;4988957;28;20041;-73
2023/12/02 01:08:42;;;;;;;25.38;13.95;;;;;;;;;;5021410;28;20037;-73
2023/12/02 01:11:08;;;;;;;26.50;13.65;;;;;;;;;;5026478;28;20399;-73
2023/12/02 01:13:34;;;;;;;27.08;13.85;;;;;;;;;;5026848;28;20022;-73
2023/12/02 01:16:00;;;;;;;21.00;9.85;;;;;;;;;;5026009;28;20033;-73
2023/12/02 01:18:25;;;;;;;20.38;10.77;;;;;;;;;;5009090;28;20095;-73
2023/12/02 01:20:51;;;;;;;26.40;13.40;;;;;;;;;;5020667;28;20034;-73
2023/12/02 01:23:16;;;;;;;24.80;12.27;;;;;;;;;;4998529;28;20033;-73
2023/12/02 01:25:42;;;;;;;18.10;9.82;;;;;;;;;;5026195;28;20041;-73
2023/12/02 01:28:08;;;;;;;17.27;8.30;;;;;;;;;;5012432;28;20025;-73
2023/12/02 01:30:34;;;;;;;17.13;8.45;;;;;;;;;;5021699;28;20467;-73
2023/12/02 01:32:59;;;;;;;20.05;10.75;;;;;;;;;;5011779;28;20021;-73
2023/12/02 01:35:25;;;;;;;17.48;9.48;;;;;;;;;;5009908;28;20042;-74
2023/12/02 01:37:52;;;;;;;17.13;9.23;;;;;;;;;;5011307;28;20072;-72
2023/12/02 01:40:20;;;;;;;14.77;9.18;;;;;;;;;;5013142;28;20042;-73
2023/12/02 01:42:46;;;;;;;16.45;9.07;;;;;;;;;;5014897;28;20033;-73
2023/12/02 01:45:12;;;;;;;20.05;9.68;;;;;;;;;;5029882;28;20037;-72
2023/12/02 01:47:39;;;;;;;17.90;7.95;;;;;;;;;;5030302;28;20021;-72
2023/12/02 01:50:06;;;;;;;22.70;10.48;;;;;;;;;;5023439;28;20077;-73
2023/12/02 01:52:32;;;;;;;22.25;9.60;;;;;;;;;;5010785;28;20029;-72
2023/12/02 01:54:59;;;;;;;19.85;8.80;;;;;;;;;;4992655;28;20274;-73
2023/12/02 01:57:26;;;;;;;19.23;7.75;;;;;;;;;;5011146;28;20029;-73
2023/12/02 01:59:54;;;;;;;17.70;7.70;;;;;;;;;;5029819;28;20043;-74
2023/12/02 02:02:21;;;;;;;12.55;7.22;;;;;;;;;;5030527;28;20022;-72
2023/12/02 02:04:48;;;;;;;11.32;6.72;;;;;;;;;;4998124;28;20034;-73
2023/12/02 02:07:15;;;;;;;15.32;8.35;;;;;;;;;;5009750;28;20036;-73
2023/12/02 02:09:48;;;;;;;12.82;6.90;;;;;;;;;;5032776;28;20116;-72
2023/12/02 02:12:15;;;;;;;13.10;6.85;;;;;;;;;;5017574;28;20037;-73
2023/12/02 02:14:41;;;;;;;17.17;7.10;;;;;;;;;;5035220;28;20032;-73
2023/12/02 02:17:07;;;;;;;13.05;7.15;;;;;;;;;;5034861;28;20037;-72
2023/12/02 02:19:33;;;;;;;16.50;7.45;;;;;;;;;;5035045;28;20163;-73
2023/12/02 02:21:59;;;;;;;14.35;6.63;;;;;;;;;;5035099;28;20076;-73
2023/12/02 02:24:24;;;;;;;14.38;6.80;;;;;;;;;;5034920;28;20105;-73
2023/12/02 02:26:50;;;;;;;12.32;6.15;;;;;;;;;;5035608;28;20036;-73
2023/12/02 02:29:16;;;;;;;13.45;7.10;;;;;;;;;;5034844;28;20025;-72
2023/12/02 02:31:42;;;;;;;14.77;6.60;;;;;;;;;;5016940;28;20079;-72
2023/12/02 02:34:07;;;;;;;26.52;7.75;;;;;;;;;;5035154;28;20340;-73
2023/12/02 02:36:33;;;;;;;17.25;7.50;;;;;;;;;;5034625;28;20041;-73
2023/12/02 02:38:59;;;;;;;17.48;7.13;;;;;;;;;;5034583;28;20033;-73
2023/12/02 02:41:25;;;;;;;13.82;6.55;;;;;;;;;;5019167;28;20037;-73
2023/12/02 02:43:50;;;;;;;9.82;6.05;;;;;;;;;;5014585;28;20022;-73
2023/12/02 02:46:16;;;;;;;14.85;5.95;;;;;;;;;;5014630;28;20097;-72
2023/12/02 02:48:42;;;;;;;10.73;5.75;;;;;;;;;;5014860;28;20021;-72
2023/12/02 02:51:08;;;;;;;12.45;5.80;;;;;;;;;;5015104;28;20029;-73
2023/12/02 02:53:33;;;;;;;10.43;5.57;;;;;;;;;;5013362;28;20515;-73
2023/12/02 02:55:59;;;;;;;8.05;4.43;;;;;;;;;;5014275;28;20435;-73
2023/12/02 02:58:29;;;;;;;9.25;4.80;;;;;;;;;;5014557;28;20057;-73
2023/12/02 03:00:54;;;;;;;12.38;4.88;;;;;;;;;;4980881;28;20081;-73
2023/12/02 03:03:20;;;;;;;10.10;5.38;;;;;;;;;;5013671;28;20080;-73
2023/12/02 03:05:46;;;;;;;9.63;5.00;;;;;;;;;;5014055;28;20091;-73
2023/12/02 03:08:12;;;;;;;9.45;4.90;;;;;;;;;;5014142;28;20053;-73
2023/12/02 03:10:37;;;;;;;13.38;5.53;;;;;;;;;;5014377;28;20113;-72
2023/12/02 03:13:03;;;;;;;14.45;6.90;;;;;;;;;;4996688;28;20372;-73
2023/12/02 03:15:29;;;;;;;16.92;6.57;;;;;;;;;;5013216;28;20400;-73
2023/12/02 03:17:54;;;;;;;17.55;7.65;;;;;;;;;;5014323;28;20080;-72
2023/12/02 03:20:20;;;;;;;23.35;9.63;;;;;;;;;;5014613;28;20117;-73
2023/12/02 03:22:46;;;;;;;18.67;8.95;;;;;;;;;;5014208;28;20025;-75
2023/12/02 03:25:12;;;;;;;20.13;7.60;;;;;;;;;;5013664;28;20034;-73
2023/12/02 03:27:37;;;;;;;8.73;4.93;;;;;;;;;;5013837;28;20076;-73
2023/12/02 03:30:04;;;;;;;9.77;4.68;;;;;;;;;;5014127;28;20045;-72
2023/12/02 03:32:29;;;;;;;7.63;4.18;;;;;;;;;;5014207;28;20064;-73
2023/12/02 03:34:55;;;;;;;14.13;4.80;;;;;;;;;;5014119;28;20065;-72
2023/12/02 03:37:21;;;;;;;12.45;4.30;;;;;;;;;;5013725;28;20531;-72
2023/12/02 03:39:46;;;;;;;9.13;4.47;;;;;;;;;;5013942;28;20041;-73
2023/12/02 03:42:12;;;;;;;9.52;4.65;;;;;;;;;;5014158;28;20021;-73
2023/12/02 03:44:38;;;;;;;8.80;4.30;;;;;;;;;;4995214;28;20416;-73
2023/12/02 03:47:03;;;;;;;6.85;3.70;;;;;;;;;;5019967;28;20166;-73
2023/12/02 03:49:29;;;;;;;10.75;4.57;;;;;;;;;;4986031;28;20038;-73
2023/12/02 03:51:55;;;;;;;14.77;4.93;;;;;;;;;;5007990;28;20075;-73
2023/12/02 03:54:21;;;;;;;11.25;5.63;;;;;;;;;;5032307;28;20119;-73
2023/12/02 03:56:46;;;;;;;10.88;5.38;;;;;;;;;;5032616;28;20040;-73
2023/12/02 03:59:12;;;;;;;11.77;5.72;;;;;;;;;;5032274;28;20026;-74
2023/12/02 04:01:38;;;;;;;11.80;5.90;;;;;;;;;;5032530;28;20021;-73
2023/12/02 04:04:04;;;;;;;12.90;6.25;;;;;;;;;;5013514;28;20060;-72
2023/12/02 04:06:29;;;;;;;11.23;5.43;;;;;;;;;;5011983;28;20542;-74
2023/12/02 04:08:55;;;;;;;13.38;5.70;;;;;;;;;;5007776;28;20030;-73
2023/12/02 04:11:21;;;;;;;9.93;4.97;;;;;;;;;;5025439;28;20025;-73
2023/12/02 04:13:46;;;;;;;9.80;4.65;;;;;;;;;;5013721;28;20044;-73
2023/12/02 04:16:12;;;;;;;11.30;5.28;;;;;;;;;;5032218;28;20028;-73
2023/12/02 04:18:38;;;;;;;8.70;5.50;;;;;;;;;;5012945;28;20483;-74
2023/12/02 04:21:08;;;;;;;8.27;4.55;;;;;;;;;;5032152;28;20398;-73
2023/12/02 04:23:37;;;;;;;13.30;5.20;;;;;;;;;;5030633;28;20483;-73
2023/12/02 04:26:03;;;;;;;7.22;4.40;;;;;;;;;;5014142;28;20034;-74
2023/12/02 04:28:29;;;;;;;10.52;4.90;;;;;;;;;;5007754;28;20030;-73
2023/12/02 04:30:55;;;;;;;13.77;4.47;;;;;;;;;;5026402;28;20553;-73
2023/12/02 04:33:20;;;;;;;8.43;3.70;;;;;;;;;;5012924;28;20069;-73
2023/12/02 04:35:46;;;;;;;9.75;5.03;;;;;;;;;;5023593;28;20491;-72
2023/12/02 04:38:12;;;;;;;16.20;5.22;;;;;;;;;;5026110;28;20037;-72
2023/12/02 04:40:37;;;;;;;18.55;5.68;;;;;;;;;;5008106;28;20504;-73
2023/12/02 04:43:03;;;;;;;17.95;5.72;;;;;;;;;;5006830;28;20144;-73
2023/12/02 04:45:29;;;;;;;9.60;4.13;;;;;;;;;;5020647;28;20075;-73
2023/12/02 04:47:54;;;;;;;9.23;3.47;;;;;;;;;;5006896;28;20044;-73
2023/12/02 04:50:20;;;;;;;7.03;3.30;;;;;;;;;;4995336;28;20076;-74
2023/12/02 04:52:46;;;;;;;5.18;3.20;;;;;;;;;;4989612;28;20045;-74
2023/12/02 04:55:11;;;;;;;9.82;3.80;;;;;;;;;;5000054;28;20043;-73
2023/12/02 04:57:37;;;;;;;10.95;4.20;;;;;;;;;;5027072;28;20033;-73
2023/12/02 05:00:14;;;;;;;5.22;3.33;;;;;;;;;;5027505;28;20048;-73
2023/12/02 05:02:41;;;;;;;6.00;3.42;;;;;;;;;;5031103;28;20069;-73
2023/12/02 05:05:07;;;;;;;14.13;4.68;;;;;;;;;;5012853;28;20029;-73
2023/12/02 05:07:33;;;;;;;22.33;5.10;;;;;;;;;;5032133;28;20073;-73
2023/12/02 05:09:59;;;;;;;12.43;4.45;;;;;;;;;;5031739;28;20064;-73
2023/12/02 05:12:25;;;;;;;10.73;3.95;;;;;;;;;;5032238;28;20034;-73
2023/12/02 05:14:51;;;;;;;12.63;4.45;;;;;;;;;;5012664;28;20148;-72
2023/12/02 05:17:17;;;;;;;15.10;5.88;;;;;;;;;;5011774;28;20120;-73
2023/12/02 05:19:43;;;;;;;15.70;6.03;;;;;;;;;;5011729;28;20029;-72
2023/12/02 05:22:09;;;;;;;21.10;7.50;;;;;;;;;;5011766;28;20034;-73
2023/12/02 05:24:35;;;;;;;16.23;7.93;;;;;;;;;;5011495;28;20037;-76
2023/12/02 05:27:01;;;;;;;12.25;6.60;;;;;;;;;;4983296;28;20504;-76
2023/12/02 05:29:26;;;;;;;12.15;6.90;;;;;;;;;;5011785;28;20026;-76
2023/12/02 05:31:52;;;;;;;18.00;7.28;;;;;;;;;;4992754;28;20030;-76
2023/12/02 05:34:18;;;;;;;20.40;8.75;;;;;;;;;;4991154;28;20444;-76
2023/12/02 05:36:46;;;;;;;21.08;8.25;;;;;;;;;;4991936;28;20040;-76
2023/12/02 05:39:14;;;;;;;16.02;7.38;;;;;;;;;;4994022;28;20018;-75
2023/12/02 05:41:41;;;;;;;12.02;5.90;;;;;;;;;;5011487;28;20038;-74
2023/12/02 05:44:07;;;;;;;13.45;6.45;;;;;;;;;;5010825;28;20041;-76
2023/12/02 05:46:33;;;;;;;12.60;6.85;;;;;;;;;;5015848;28;20029;-76
2023/12/02 05:49:00;;;;;;;16.30;7.32;;;;;;;;;;5011797;28;20061;-77
2023/12/02 05:51:26;;;;;;;16.50;7.60;;;;;;;;;;4993954;28;20442;-76
2023/12/02 05:53:52;;;;;;;16.52;6.82;;;;;;;;;;4994765;28;20034;-76
2023/12/02 05:56:19;;;;;;;13.57;7.22;;;;;;;;;;5011800;28;20057;-76
2023/12/02 05:58:45;;;;;;;16.75;6.32;;;;;;;;;;5000063;28;20018;-76
2023/12/02 06:01:11;;;;;;;8.25;5.18;;;;;;;;;;5013841;28;20254;-76
2023/12/02 06:03:37;;;;;;;8.73;4.75;;;;;;;;;;4993440;28;20030;-76
2023/12/02 06:06:09;;;;;;;9.40;4.93;;;;;;;;;;5012673;28;20038;-76
2023/12/02 06:08:36;;;;;;;8.90;4.82;;;;;;;;;;5011779;28;20038;-76
2023/12/02 06:11:02;;;;;;;13.43;4.70;;;;;;;;;;5010820;28;20506;-76
2023/12/02 06:13:29;;;;;;;15.60;6.03;;;;;;;;;;5014001;28;20081;-77
2023/12/02 06:15:55;;;;;;;14.93;6.00;;;;;;;;;;5014920;28;20026;-75
2023/12/02 06:18:20;;;;;;;14.50;5.65;;;;;;;;;;5014875;28;20088;-75
2023/12/02 06:20:47;;;;;;;16.42;6.38;;;;;;;;;;5013346;28;20037;-76
2023/12/02 06:23:13;;;;;;;13.35;5.05;;;;;;;;;;5014969;28;20029;-76
2023/12/02 06:25:39;;;;;;;12.98;4.20;;;;;;;;;;5014717;28;20029;-76
2023/12/02 06:28:05;;;;;;;13.15;4.53;;;;;;;;;;5014655;28;20112;-76
2023/12/02 06:30:31;;;;;;;9.52;5.10;;;;;;;;;;5014569;28;20018;-76
2023/12/02 06:32:57;;;;;;;11.20;5.15;;;;;;;;;;4996692;28;20496;-76
2023/12/02 06:35:23;;;;;;;13.30;5.05;;;;;;;;;;5014655;28;20028;-76
2023/12/02 06:37:49;;;;;;;12.38;5.50;;;;;;;;;;4996894;28;20171;-76
2023/12/02 06:40:14;;;;;;;14.75;5.70;;;;;;;;;;4999427;28;20025;-75
2023/12/02 06:42:40;;;;;;;11.73;5.70;;;;;;;;;;5014207;28;20026;-75
2023/12/02 06:45:08;;;;;;;20.08;6.07;;;;;;;;;;5012412;28;20018;-76
2023/12/02 06:47:34;;;;;;;22.40;7.15;;;;;;;;;;5013965;28;20116;-76
2023/12/02 06:50:00;;;;;;;16.05;6.30;;;;;;;;;;5013909;28;20508;-75
2023/12/02 06:52:26;;;;;;;14.00;6.00;;;;;;;;;;5014339;28;20087;-76
2023/12/02 06:54:51;;;;;;;24.75;7.20;;;;;;;;;;5013985;28;20025;-76
2023/12/02 06:57:17;;;;;;;33.42;7.70;;;;;;;;;;5018640;28;20441;-77
2023/12/02 06:59:46;;;;;;;26.60;8.18;;;;;;;;;;5012770;28;20024;-76
2023/12/02 07:02:12;;;;;;;24.80;7.78;;;;;;;;;;5013577;28;20068;-76
2023/12/02 07:04:38;;;;;;;37.40;7.93;;;;;;;;;;5015890;28;20022;-76
2023/12/02 07:07:04;;;;;;;23.60;7.07;;;;;;;;;;5014448;28;20404;-77
2023/12/02 07:09:30;;;;;;;18.10;6.15;;;;;;;;;;4995856;28;20034;-75
2023/12/02 07:11:57;;;;;;;15.90;6.25;;;;;;;;;;5013401;28;20508;-75
2023/12/02 07:14:22;;;;;;;21.45;7.72;;;;;;;;;;5013476;28;20017;-76
2023/12/02 07:16:48;;;;;;;22.30;7.70;;;;;;;;;;5013626;28;20403;-76
2023/12/02 07:19:15;;;;;;;25.00;8.85;;;;;;;;;;4995895;28;20025;-76
2023/12/02 07:21:43;;;;;;;23.70;9.00;;;;;;;;;;4992456;28;20034;-76
2023/12/02 07:24:09;;;;;;;21.40;7.90;;;;;;;;;;5011825;28;20115;-76
2023/12/02 07:26:35;;;;;;;18.38;8.40;;;;;;;;;;4996106;28;20042;-76
2023/12/02 07:29:01;;;;;;;15.02;7.68;;;;;;;;;;5013380;28;20488;-76
2023/12/02 07:31:27;;;;;;;15.00;7.40;;;;;;;;;;5003644;28;20072;-76
2023/12/02 07:33:53;;;;;;;16.42;7.72;;;;;;;;;;4998078;28;20026;-75
2023/12/02 07:36:20;;;;;;;19.40;7.78;;;;;;;;;;5012801;28;20407;-74
2023/12/02 07:38:45;;;;;;;31.50;10.40;;;;;;;;;;5012723;28;20022;-76
2023/12/02 07:41:12;;;;;;;19.27;8.77;;;;;;;;;;5014404;28;20030;-76
2023/12/02 07:43:38;;;;;;;22.63;9.95;;;;;;;;;;4978837;28;20029;-77
2023/12/02 07:46:04;;;;;;;23.25;9.00;;;;;;;;;;4995144;28;20120;-75
2023/12/02 07:48:30;;;;;;;24.80;9.00;;;;;;;;;;4995152;28;20044;-78
2023/12/02 07:50:56;;;;;;;28.05;11.00;;;;;;;;;;5013044;28;20045;-77
2023/12/02 07:53:22;;;;;;;36.97;10.63;;;;;;;;;;5013456;28;20026;-76
2023/12/02 07:55:49;;;;;;;43.25;10.95;;;;;;;;;;5012702;28;20467;-77
2023/12/02 07:58:17;;;;;;;47.97;14.23;;;;;;;;;;4995777;28;20025;-77
2023/12/02 08:00:43;;;;;;;38.67;12.52;;;;;;;;;;5015198;28;20037;-78
2023/12/02 08:03:09;;;;;;;26.02;9.60;;;;;;;;;;5013806;28;20014;-76
2023/12/02 08:05:35;;;;;;;32.20;12.60;;;;;;;;;;4996281;28;20144;-77
2023/12/02 08:08:00;;;;;;;24.58;11.18;;;;;;;;;;4995214;28;20128;-76
2023/12/02 08:10:26;;;;;;;27.33;11.13;;;;;;;;;;5014053;28;20399;-74
2023/12/02 08:12:53;;;;;;;39.90;12.05;;;;;;;;;;5020184;28;20037;-78
2023/12/02 08:15:19;;;;;;;24.45;10.90;;;;;;;;;;5032789;28;20037;-77
2023/12/02 08:17:46;;;;;;;28.08;13.25;;;;;;;;;;5033185;28;20052;-79
2023/12/02 08:20:12;;;;;;;30.42;15.60;;;;;;;;;;4995981;28;20040;-75
2023/12/02 08:22:38;;;;;;;30.20;12.57;;;;;;;;;;5013639;28;20109;-76
2023/12/02 08:25:05;;;;;;;42.70;16.60;;;;;;;;;;4996002;28;20049;-77
2023/12/02 08:27:31;;;;;;;39.03;15.70;;;;;;;;;;5012405;28;20045;-76
2023/12/02 08:29:57;;;;;;;34.03;15.15;;;;;;;;;;5012814;28;20061;-76
2023/12/02 08:32:22;;;;;;;30.35;13.27;;;;;;;;;;5011406;28;20043;-76
2023/12/02 08:34:48;;;;;;;27.65;12.40;;;;;;;;;;5006880;28;20442;-75
2023/12/02 08:37:14;;;;;;;31.70;14.13;;;;;;;;;;5004474;28;20025;-74
2023/12/02 08:39:40;;;;;;;41.28;14.80;;;;;;;;;;5008968;28;20076;-75
2023/12/02 08:42:05;;;;;;;31.63;14.50;;;;;;;;;;5014446;28;20041;-75
2023/12/02 08:44:31;;;;;;;39.95;17.27;;;;;;;;;;5010505;28;20029;-76
2023/12/02 08:47:00;;;;;;;38.83;18.58;;;;;;;;;;5011962;28;20083;-74
2023/12/02 08:49:27;;;;;;;51.10;20.52;;;;;;;;;;5011045;28;20238;-75
2023/12/02 08:51:53;;;;;;;53.67;20.52;;;;;;;;;;5013203;28;20025;-76
2023/12/02 08:54:19;;;;;;;35.40;19.17;;;;;;;;;;5011463;28;20036;-75
2023/12/02 08:56:45;;;;;;;51.80;18.90;;;;;;;;;;4994603;28;20024;-76
2023/12/02 08:59:10;;;;;;;47.67;17.30;;;;;;;;;;5013123;28;20041;-78
2023/12/02 09:01:36;;;;;;;33.92;16.00;;;;;;;;;;5011776;28;20060;-78
2023/12/02 09:04:02;;;;;;;38.00;17.80;;;;;;;;;;5012207;28;20073;-77
2023/12/02 09:06:28;;;;;;;50.17;19.77;;;;;;;;;;5011662;28;20148;-76
2023/12/02 09:08:55;;;;;;;54.72;21.10;;;;;;;;;;5012033;28;20026;-79
2023/12/02 09:11:21;;;;;;;62.47;22.98;;;;;;;;;;4995317;28;20042;-77
2023/12/02 09:13:47;;;;;;;49.42;22.30;;;;;;;;;;4994629;28;20464;-79
2023/12/02 09:16:22;;;;;;;56.72;24.23;;;;;;;;;;4995478;28;20080;-76
2023/12/02 09:18:49;;;;;;;60.72;23.85;;;;;;;;;;5012478;28;20033;-76
2023/12/02 09:21:29;;;;;;;46.85;21.70;;;;;;;;;;5011985;28;20085;-77
2023/12/02 09:23:58;;;;;;;49.20;17.17;;;;;;;;;;4994609;28;20030;-76
2023/12/02 09:26:28;;;;;;;38.08;15.32;;;;;;;;;;4994673;28;20057;-75
2023/12/02 09:28:56;;;;;;;46.30;16.20;;;;;;;;;;5012133;28;20088;-77
2023/12/02 09:31:24;;;;;;;36.58;15.13;;;;;;;;;;4995250;28;20365;-78
2023/12/02 09:34:03;;;;;;;72.00;17.33;;;;;;;;;;5015572;28;20514;-78
2023/12/02 09:36:41;;;;;;;38.45;14.07;;;;;;;;;;5015561;28;20038;-77
2023/12/02 09:39:09;;;;;;;38.15;15.23;;;;;;;;;;4996436;28;20088;-76
2023/12/02 09:41:48;;;;;;;44.22;15.40;;;;;;;;;;5012937;28;20095;-77
2023/12/02 09:44:28;;;;;;;60.60;18.40;;;;;;;;;;5011970;28;20443;-77
2023/12/02 09:47:19;;;;;;;35.30;15.60;;;;;;;;;;5012662;28;20379;-78
2023/12/02 09:50:10;;;;;;;30.73;14.80;;;;;;;;;;5016058;28;20153;-76
2023/12/02 09:52:57;;;;;;;51.33;18.65;;;;;;;;;;5016057;28;20041;-76
2023/12/02 09:55:35;;;;;;;54.92;20.23;;;;;;;;;;5016076;28;20033;-75
2023/12/02 09:58:09;;;;;;;53.05;23.60;;;;;;;;;;4997817;28;20385;-78
2023/12/02 10:00:38;;;;;;;61.55;25.48;;;;;;;;;;5012529;28;20030;-75
2023/12/02 10:03:25;;;;;;;55.60;24.88;;;;;;;;;;4994549;28;20030;-75
2023/12/02 10:06:10;;;;;;;59.20;24.10;;;;;;;;;;4977464;28;20121;-76
2023/12/02 10:09:01;;;;;;;45.65;22.25;;;;;;;;;;4978068;28;20039;-76
2023/12/02 10:11:45;;;;;;;39.85;20.42;;;;;;;;;;4994925;28;20074;-76
2023/12/02 10:14:11;;;;;;;51.80;22.20;;;;;;;;;;5010670;28;20088;-75
2023/12/02 10:16:40;;;;;;;54.55;22.77;;;;;;;;;;5034808;28;20033;-75
2023/12/02 10:19:12;;;;;;;42.00;18.40;;;;;;;;;;5017688;28;20415;-77
2023/12/02 10:21:42;;;;;;;37.95;17.77;;;;;;;;;;5000298;28;20038;-76
2023/12/02 10:24:11;;;;;;;36.33;17.08;;;;;;;;;;5017226;28;20037;-74
2023/12/02 10:26:42;;;;;;;70.53;22.20;;;;;;;;;;5034941;28;20036;-74
2023/12/02 10:29:46;;;;;;;57.08;20.98;;;;;;;;;;5039461;28;20091;-74
2023/12/02 10:32:34;;;;;;;38.28;16.45;;;;;;;;;;5025174;28;20049;-74
2023/12/02 10:35:00;;;;;;;52.33;17.48;;;;;;;;;;5034196;28;20037;-72
2023/12/02 10:37:36;;;;;;;41.13;14.35;;;;;;;;;;5034600;28;20109;-74
2023/12/02 10:40:08;;;;;;;54.85;15.88;;;;;;;;;;5034636;28;20033;-75
2023/12/02 10:43:24;;;;;;;35.72;12.45;;;;;;;;;;5033231;28;20048;-74
2023/12/02 10:45:50;;;;;;;44.22;13.88;;;;;;;;;;5017085;28;20061;-73
2023/12/02 10:48:17;;;;;;;40.97;15.00;;;;;;;;;;5016382;28;20124;-74
2023/12/02 10:50:43;;;;;;;25.23;14.40;;;;;;;;;;5003740;28;20498;-71
2023/12/02 10:53:09;;;;;;;37.00;14.40;;;;;;;;;;5007719;28;20033;-72
2023/12/02 10:55:39;;;;;;;42.22;15.98;;;;;;;;;;4994100;28;20172;-75
2023/12/02 10:58:06;;;;;;;40.17;15.30;;;;;;;;;;4995064;28;20132;-74
2023/12/02 11:00:38;;;;;;;43.28;15.75;;;;;;;;;;5029035;28;20017;-73
2023/12/02 11:03:23;;;;;;;40.97;13.07;;;;;;;;;;5018890;28;20041;-72
2023/12/02 11:06:00;;;;;;;25.13;11.77;;;;;;;;;;5013918;28;20044;-72
2023/12/02 11:08:50;;;;;;;41.67;14.05;;;;;;;;;;5013761;28;20120;-72
2023/12/02 11:11:45;;;;;;;28.88;13.48;;;;;;;;;;5013753;28;20038;-73
2023/12/02 11:14:17;;;;;;;47.65;16.00;;;;;;;;;;5013589;28;20200;-77
2023/12/02 11:17:06;;;;;;;36.77;16.23;;;;;;;;;;5013728;28;20041;-76
2023/12/02 11:20:05;;;;;;;37.28;20.38;;;;;;;;;;4995304;28;20022;-75
2023/12/02 11:23:01;;;;;;;58.50;24.02;;;;;;;;;;4994261;28;20132;-77
2023/12/02 11:25:36;;;;;;;84.60;37.72;;;;;;;;;;4998352;28;20030;-74
2023/12/02 11:28:11;;;;;;;44.60;24.85;;;;;;;;;;4976413;28;20034;-73
2023/12/02 11:30:48;;;;;;;71.35;25.08;;;;;;;;;;4994427;28;20041;-74
2023/12/02 11:33:38;;;;;;;78.20;25.15;;;;;;;;;;4993419;28;20052;-74
2023/12/02 11:36:16;;;;;;;53.58;22.35;;;;;;;;;;4996515;28;20042;-75
2023/12/02 11:39:00;;;;;;;52.63;21.83;;;;;;;;;;5012557;28;20026;-74
2023/12/02 11:41:50;;;;;;;43.58;20.15;;;;;;;;;;5013064;28;20056;-75
2023/12/02 11:44:43;;;;;;;50.05;18.42;;;;;;;;;;5013803;28;20426;-75
2023/12/02 11:47:27;;;;;;;34.00;15.23;;;;;;;;;;5014755;28;20448;-75
2023/12/02 11:50:06;;;;;;;41.03;14.73;;;;;;;;;;5014232;28;20041;-76
2023/12/02 11:53:09;;;;;;;32.97;17.25;;;;;;;;;;5013974;28;20353;-78
2023/12/02 11:56:10;;;;;;;34.80;18.08;;;;;;;;;;5013729;28;20038;-76
2023/12/02 11:58:58;;;;;;;41.38;18.92;;;;;;;;;;5012848;28;20412;-76
2023/12/02 12:01:51;;;;;;;57.72;24.15;;;;;;;;;;5015391;28;20133;-78
2023/12/02 12:04:37;;;;;;;;;;;;;;;;;;5014087;28;20065;-77
2023/12/02 12:07:12;;;;;;;59.75;21.05;;;;;;;;;;5013023;28;19913;-75
2023/12/02 12:10:03;;;;;;;41.20;17.02;;;;;;;;;;5012333;28;20026;-76
2023/12/02 12:12:31;;;;;;;43.95;15.25;;;;;;;;;;4995528;28;20038;-76
2023/12/02 12:15:01;;;;;;;71.15;17.23;;;;;;;;;;5011179;28;20049;-76
2023/12/02 12:17:28;;;;;;;54.25;14.80;;;;;;;;;;5014771;28;20034;-77
2023/12/02 12:19:59;;;;;;;33.83;13.38;;;;;;;;;;5012678;28;20107;-77
2023/12/02 12:22:28;;;;;;;25.05;9.65;;;;;;;;;;4995565;28;20479;-76
2023/12/02 12:24:53;;;;;;;33.25;10.93;;;;;;;;;;4995387;28;20022;-76
2023/12/02 12:27:19;;;;;;;21.55;10.45;;;;;;;;;;5013141;28;20373;-76
2023/12/02 12:29:58;;;;;;;23.67;9.57;;;;;;;;;;4979690;28;20076;-77
2023/12/02 12:32:24;;;;;;;25.45;9.00;;;;;;;;;;4995252;28;20045;-76
2023/12/02 12:34:53;;;;;;;22.73;10.02;;;;;;;;;;5013088;28;20026;-75
2023/12/02 12:37:20;;;;;;;22.27;9.80;;;;;;;;;;5012353;28;20034;-76
2023/12/02 12:39:48;;;;;;;42.42;12.70;;;;;;;;;;5012939;28;20080;-77
2023/12/02 12:42:16;;;;;;;45.70;11.60;;;;;;;;;;4994934;28;20504;-77
2023/12/02 12:44:44;;;;;;;39.85;9.00;;;;;;;;;;4994847;28;20049;-76
2023/12/02 12:47:11;;;;;;;31.52;9.20;;;;;;;;;;5012000;28;20385;-76
2023/12/02 12:49:41;;;;;;;27.08;8.68;;;;;;;;;;5012839;28;20032;-78
2023/12/02 12:52:09;;;;;;;24.13;8.35;;;;;;;;;;5012449;28;20443;-77
2023/12/02 12:54:44;;;;;;;21.88;8.23;;;;;;;;;;4996169;28;20092;-78
2023/12/02 12:57:13;;;;;;;37.80;9.57;;;;;;;;;;4991426;28;20042;-76
2023/12/02 12:59:39;;;;;;;26.58;8.15;;;;;;;;;;4989386;28;20029;-76
2023/12/02 13:02:20;;;;;;;47.90;10.40;;;;;;;;;;4992827;28;20030;-76
2023/12/02 13:05:15;;;;;;;36.25;10.15;;;;;;;;;;4992763;28;20117;-78
2023/12/02 13:08:03;;;;;;;24.77;9.70;;;;;;;;;;4991379;28;20046;-74
2023/12/02 13:10:33;;;;;;;27.95;9.93;;;;;;;;;;4992544;28;20484;-76
2023/12/02 13:13:01;;;;;;;28.15;9.10;;;;;;;;;;4993093;28;20101;-76
2023/12/02 13:15:29;;;;;;;21.35;9.23;;;;;;;;;;4992072;28;20049;-76
2023/12/02 13:17:56;;;;;;;20.70;9.38;;;;;;;;;;4992382;28;20405;-77
2023/12/02 13:20:23;;;;;;;19.65;10.07;;;;;;;;;;4993935;28;20114;-76
2023/12/02 13:22:52;;;;;;;28.08;10.82;;;;;;;;;;4997036;28;20034;-76
2023/12/02 13:25:21;;;;;;;29.55;16.17;;;;;;;;;;4980712;28;20113;-76
2023/12/02 13:27:50;;;;;;;29.95;11.43;;;;;;;;;;4963723;28;20033;-76
2023/12/02 13:30:16;;;;;;;33.17;12.02;;;;;;;;;;4997543;28;20495;-76
2023/12/02 13:32:44;;;;;;;24.08;9.88;;;;;;;;;;4997632;28;20026;-77
2023/12/02 13:35:11;;;;;;;27.15;9.80;;;;;;;;;;4978466;28;20038;-75
2023/12/02 13:37:52;;;;;;;27.77;12.23;;;;;;;;;;4962760;28;20129;-76
2023/12/02 13:40:23;;;;;;;38.25;16.42;;;;;;;;;;4978772;28;20038;-76
2023/12/02 13:42:52;;;;;;;37.22;16.52;;;;;;;;;;4996181;28;20084;-75
2023/12/02 13:45:21;;;;;;;35.10;15.77;;;;;;;;;;4996481;28;20113;-76
2023/12/02 13:48:12;;;;;;;37.53;16.08;;;;;;;;;;4996731;28;20111;-76
2023/12/02 13:51:24;;;;;;;29.52;13.52;;;;;;;;;;5001060;28;20087;-77
2023/12/02 13:54:07;;;;;;;31.77;13.00;;;;;;;;;;4963146;28;20050;-77
2023/12/02 13:57:06;;;;;;;26.70;13.05;;;;;;;;;;4995820;28;20061;-76
2023/12/02 13:59:42;;;;;;;28.88;13.85;;;;;;;;;;4982103;28;20049;-76
2023/12/02 14:02:35;;;;;;;34.25;16.95;;;;;;;;;;5017555;28;20069;-77
2023/12/02 14:05:06;;;;;;;35.65;14.93;;;;;;;;;;4985798;28;20037;-78
2023/12/02 14:07:45;;;;;;;32.30;15.48;;;;;;;;;;5034617;28;20033;-75
2023/12/02 14:10:15;;;;;;;49.30;25.02;;;;;;;;;;5035077;28;20048;-76
2023/12/02 14:12:59;;;;;;;48.67;25.17;;;;;;;;;;5017083;28;20040;-76
2023/12/02 14:15:43;;;;;;;47.05;24.65;;;;;;;;;;5016686;28;20537;-76
2023/12/02 14:18:46;;;;;;;46.38;19.42;;;;;;;;;;5014643;28;20033;-75
2023/12/02 14:21:30;;;;;;;44.88;19.30;;;;;;;;;;5014688;28;20059;-76
2023/12/02 14:24:25;;;;;;;40.47;13.73;;;;;;;;;;5015060;28;20045;-76
2023/12/02 14:27:16;;;;;;;34.00;12.40;;;;;;;;;;5011220;28;20531;-77
2023/12/02 14:30:04;;;;;;;44.08;12.70;;;;;;;;;;4997411;28;20044;-79
2023/12/02 14:32:48;;;;;;;30.13;8.43;;;;;;;;;;4996923;28;20049;-76
2023/12/02 14:35:48;;;;;;;23.52;5.68;;;;;;;;;;4996965;28;20030;-77
2023/12/02 14:38:40;;;;;;;28.27;6.10;;;;;;;;;;4997345;28;20042;-76
2023/12/02 14:41:41;;;;;;;22.23;5.93;;;;;;;;;;5021625;28;20052;-75
2023/12/02 14:44:41;;;;;;;20.80;5.68;;;;;;;;;;4980723;28;20038;-76